sensor_id;sensor_type;location;lat;lon;timestamp;pressure;altitude;pressure_sealevel;temperature;humidity
46408;BME280;32110;45.724;21.276;2023-12-29T00:00:50;101216.75;;;1.11;nan
46408;BME280;32110;45.724;21.276;2023-12-29T00:03:16;101199.72;;;0.98;nan
46408;BME280;32110;45.724;21.276;2023-12-29T00:05:41;101208.44;;;0.97;nan
46408;BME280;32110;45.724;21.276;2023-12-29T00:08:07;101219.38;;;1.01;nan
46408;BME280;32110;45.724;21.276;2023-12-29T00:10:32;101213.13;;;0.94;nan
46408;BME280;32110;45.724;21.276;2023-12-29T00:12:58;101208.19;;;0.91;nan
46408;BME280;32110;45.724;21.276;2023-12-29T00:15:23;101219.13;;;0.94;nan
46408;BME280;32110;45.724;21.276;2023-12-29T00:17:48;101218.94;;;0.96;nan
46408;BME280;32110;45.724;21.276;2023-12-29T00:20:14;101210.94;;;0.89;nan
46408;BME280;32110;45.724;21.276;2023-12-29T00:22:39;101186.19;;;0.67;nan
46408;BME280;32110;45.724;21.276;2023-12-29T00:25:05;101205.63;;;0.81;nan
46408;BME280;32110;45.724;21.276;2023-12-29T00:27:30;101216.84;;;0.81;nan
46408;BME280;32110;45.724;21.276;2023-12-29T00:29:56;101194.78;;;0.68;nan
46408;BME280;32110;45.724;21.276;2023-12-29T00:32:21;101218.50;;;0.73;nan
46408;BME280;32110;45.724;21.276;2023-12-29T00:34:47;101215.34;;;0.69;nan
46408;BME280;32110;45.724;21.276;2023-12-29T00:37:12;101217.41;;;0.75;nan
46408;BME280;32110;45.724;21.276;2023-12-29T00:39:38;101213.56;;;0.79;nan
46408;BME280;32110;45.724;21.276;2023-12-29T00:42:06;101201.97;;;0.74;nan
46408;BME280;32110;45.724;21.276;2023-12-29T00:44:33;101202.66;;;0.76;nan
46408;BME280;32110;45.724;21.276;2023-12-29T00:46:59;101221.31;;;0.89;nan
46408;BME280;32110;45.724;21.276;2023-12-29T00:49:24;101211.88;;;0.88;nan
46408;BME280;32110;45.724;21.276;2023-12-29T00:51:50;101210.94;;;0.89;nan
46408;BME280;32110;45.724;21.276;2023-12-29T00:54:15;101196.63;;;0.85;nan
46408;BME280;32110;45.724;21.276;2023-12-29T00:56:41;101198.25;;;0.86;nan
46408;BME280;32110;45.724;21.276;2023-12-29T00:59:06;101199.50;;;0.82;nan
46408;BME280;32110;45.724;21.276;2023-12-29T01:01:35;101224.56;;;1.01;nan
46408;BME280;32110;45.724;21.276;2023-12-29T01:04:02;101221.97;;;1.01;nan
46408;BME280;32110;45.724;21.276;2023-12-29T01:06:27;101209.41;;;0.96;nan
46408;BME280;32110;45.724;21.276;2023-12-29T01:08:53;101217.72;;;1.00;nan
46408;BME280;32110;45.724;21.276;2023-12-29T01:11:18;101210.75;;;1.00;nan
46408;BME280;32110;45.724;21.276;2023-12-29T01:13:43;101207.91;;;1.03;nan
46408;BME280;32110;45.724;21.276;2023-12-29T01:16:09;101205.97;;;1.05;nan
46408;BME280;32110;45.724;21.276;2023-12-29T01:18:34;101195.75;;;1.04;nan
46408;BME280;32110;45.724;21.276;2023-12-29T01:21:00;101200.78;;;1.05;nan
46408;BME280;32110;45.724;21.276;2023-12-29T01:23:25;101150.13;;;0.74;nan
46408;BME280;32110;45.724;21.276;2023-12-29T01:25:50;101188.63;;;1.06;nan
46408;BME280;32110;45.724;21.276;2023-12-29T01:28:16;101174.19;;;1.03;nan
46408;BME280;32110;45.724;21.276;2023-12-29T01:30:41;101193.09;;;1.14;nan
46408;BME280;32110;45.724;21.276;2023-12-29T01:33:07;101194.47;;;1.18;nan
46408;BME280;32110;45.724;21.276;2023-12-29T01:35:32;101170.63;;;1.04;nan
46408;BME280;32110;45.724;21.276;2023-12-29T01:37:58;101197.84;;;1.18;nan
46408;BME280;32110;45.724;21.276;2023-12-29T01:40:23;101168.03;;;1.04;nan
46408;BME280;32110;45.724;21.276;2023-12-29T01:42:48;101177.66;;;1.12;nan
46408;BME280;32110;45.724;21.276;2023-12-29T01:45:24;101180.00;;;1.15;nan
46408;BME280;32110;45.724;21.276;2023-12-29T01:47:51;101169.50;;;1.07;nan
46408;BME280;32110;45.724;21.276;2023-12-29T01:50:18;101162.16;;;1.02;nan
46408;BME280;32110;45.724;21.276;2023-12-29T01:52:45;101159.28;;;1.05;nan
46408;BME280;32110;45.724;21.276;2023-12-29T01:55:15;101179.03;;;1.16;nan
46408;BME280;32110;45.724;21.276;2023-12-29T01:57:42;101159.72;;;1.01;nan
46408;BME280;32110;45.724;21.276;2023-12-29T02:00:08;101158.75;;;1.02;nan
46408;BME280;32110;45.724;21.276;2023-12-29T02:02:35;101155.41;;;0.92;nan
46408;BME280;32110;45.724;21.276;2023-12-29T02:05:00;101170.66;;;0.95;nan
46408;BME280;32110;45.724;21.276;2023-12-29T02:07:27;101154.72;;;0.90;nan
46408;BME280;32110;45.724;21.276;2023-12-29T02:09:56;101147.06;;;0.88;nan
46408;BME280;32110;45.724;21.276;2023-12-29T02:12:22;101115.91;;;0.70;nan
46408;BME280;32110;45.724;21.276;2023-12-29T02:14:48;101161.78;;;0.97;nan
46408;BME280;32110;45.724;21.276;2023-12-29T02:17:22;101158.38;;;0.97;nan
46408;BME280;32110;45.724;21.276;2023-12-29T02:19:51;101165.03;;;0.99;nan
46408;BME280;32110;45.724;21.276;2023-12-29T02:22:17;101163.41;;;0.98;nan
46408;BME280;32110;45.724;21.276;2023-12-29T02:24:49;101165.72;;;1.01;nan
46408;BME280;32110;45.724;21.276;2023-12-29T05:15:01;101152.88;;;-0.24;nan
46408;BME280;32110;45.724;21.276;2023-12-29T05:19:52;101166.34;;;-0.10;nan
46408;BME280;32110;45.724;21.276;2023-12-29T05:22:17;101156.69;;;-0.08;nan
46408;BME280;32110;45.724;21.276;2023-12-29T05:24:43;101182.16;;;-0.04;nan
46408;BME280;32110;45.724;21.276;2023-12-29T05:27:10;101158.88;;;-0.13;nan
46408;BME280;32110;45.724;21.276;2023-12-29T05:29:36;101174.53;;;-0.05;nan
46408;BME280;32110;45.724;21.276;2023-12-29T05:32:01;101155.06;;;-0.09;nan
46408;BME280;32110;45.724;21.276;2023-12-29T05:34:28;101189.41;;;0.03;nan
46408;BME280;32110;45.724;21.276;2023-12-29T05:36:53;101175.22;;;-0.03;nan
46408;BME280;32110;45.724;21.276;2023-12-29T05:39:19;101163.22;;;-0.04;nan
46408;BME280;32110;45.724;21.276;2023-12-29T05:41:44;101178.75;;;0.06;nan
46408;BME280;32110;45.724;21.276;2023-12-29T05:44:10;101169.78;;;0.00;nan
46408;BME280;32110;45.724;21.276;2023-12-29T05:46:35;101152.47;;;-0.09;nan
46408;BME280;32110;45.724;21.276;2023-12-29T05:49:00;101157.38;;;-0.06;nan
46408;BME280;32110;45.724;21.276;2023-12-29T05:51:26;101167.31;;;-0.02;nan
46408;BME280;32110;45.724;21.276;2023-12-29T05:53:51;101170.31;;;0.04;nan
46408;BME280;32110;45.724;21.276;2023-12-29T05:56:17;101163.91;;;-0.12;nan
46408;BME280;32110;45.724;21.276;2023-12-29T05:58:43;101169.75;;;-0.10;nan
46408;BME280;32110;45.724;21.276;2023-12-29T06:01:08;101172.22;;;-0.08;nan
46408;BME280;32110;45.724;21.276;2023-12-29T06:03:34;101155.59;;;-0.15;nan
46408;BME280;32110;45.724;21.276;2023-12-29T06:05:59;101159.81;;;-0.24;nan
46408;BME280;32110;45.724;21.276;2023-12-29T06:08:25;101156.00;;;-0.30;nan
46408;BME280;32110;45.724;21.276;2023-12-29T06:10:50;101157.91;;;-0.32;nan
46408;BME280;32110;45.724;21.276;2023-12-29T06:13:16;101159.41;;;-0.29;nan
46408;BME280;32110;45.724;21.276;2023-12-29T06:15:41;101168.00;;;-0.29;nan
46408;BME280;32110;45.724;21.276;2023-12-29T06:18:07;101158.31;;;-0.36;nan
46408;BME280;32110;45.724;21.276;2023-12-29T06:20:32;101162.53;;;-0.35;nan
46408;BME280;32110;45.724;21.276;2023-12-29T06:22:59;101153.41;;;-0.39;nan
46408;BME280;32110;45.724;21.276;2023-12-29T06:25:24;101186.25;;;-0.20;nan
46408;BME280;32110;45.724;21.276;2023-12-29T06:27:50;101144.84;;;-0.40;nan
46408;BME280;32110;45.724;21.276;2023-12-29T06:30:16;101168.00;;;-0.19;nan
46408;BME280;32110;45.724;21.276;2023-12-29T06:32:41;101150.00;;;-0.30;nan
46408;BME280;32110;45.724;21.276;2023-12-29T06:35:07;101172.50;;;-0.21;nan
46408;BME280;32110;45.724;21.276;2023-12-29T06:37:36;101191.84;;;-0.06;nan
46408;BME280;32110;45.724;21.276;2023-12-29T06:40:03;101179.69;;;-0.15;nan
46408;BME280;32110;45.724;21.276;2023-12-29T06:42:29;101193.91;;;-0.09;nan
46408;BME280;32110;45.724;21.276;2023-12-29T06:44:54;101193.75;;;-0.08;nan
46408;BME280;32110;45.724;21.276;2023-12-29T06:47:19;101186.66;;;-0.06;nan
46408;BME280;32110;45.724;21.276;2023-12-29T06:49:45;101182.44;;;-0.07;nan
46408;BME280;32110;45.724;21.276;2023-12-29T06:52:10;101189.66;;;-0.01;nan
46408;BME280;32110;45.724;21.276;2023-12-29T06:54:36;101203.56;;;0.08;nan
46408;BME280;32110;45.724;21.276;2023-12-29T06:57:01;101194.44;;;0.04;nan
46408;BME280;32110;45.724;21.276;2023-12-29T06:59:27;101181.34;;;-0.04;nan
46408;BME280;32110;45.724;21.276;2023-12-29T07:01:52;101190.91;;;0.05;nan
46408;BME280;32110;45.724;21.276;2023-12-29T07:04:17;101206.28;;;0.16;nan
46408;BME280;32110;45.724;21.276;2023-12-29T07:06:43;101196.47;;;0.10;nan
46408;BME280;32110;45.724;21.276;2023-12-29T07:09:08;101189.41;;;0.12;nan
46408;BME280;32110;45.724;21.276;2023-12-29T07:11:35;101204.25;;;0.30;nan
46408;BME280;32110;45.724;21.276;2023-12-29T07:14:01;101180.25;;;0.18;nan
46408;BME280;32110;45.724;21.276;2023-12-29T07:16:26;101204.50;;;0.36;nan
46408;BME280;32110;45.724;21.276;2023-12-29T07:18:52;101184.44;;;0.29;nan
46408;BME280;32110;45.724;21.276;2023-12-29T07:21:17;101194.28;;;0.35;nan
46408;BME280;32110;45.724;21.276;2023-12-29T07:23:43;101203.13;;;0.42;nan
46408;BME280;32110;45.724;21.276;2023-12-29T07:26:09;101182.56;;;0.31;nan
46408;BME280;32110;45.724;21.276;2023-12-29T07:28:34;101185.28;;;0.39;nan
46408;BME280;32110;45.724;21.276;2023-12-29T07:31:00;101191.66;;;0.45;nan
46408;BME280;32110;45.724;21.276;2023-12-29T07:33:26;101187.59;;;0.42;nan
46408;BME280;32110;45.724;21.276;2023-12-29T07:35:52;101189.38;;;0.41;nan
46408;BME280;32110;45.724;21.276;2023-12-29T07:38:18;101205.72;;;0.52;nan
46408;BME280;32110;45.724;21.276;2023-12-29T07:40:43;101188.94;;;0.46;nan
46408;BME280;32110;45.724;21.276;2023-12-29T07:43:09;101189.63;;;0.48;nan
46408;BME280;32110;45.724;21.276;2023-12-29T07:45:34;101181.59;;;0.41;nan
46408;BME280;32110;45.724;21.276;2023-12-29T07:48:02;101165.09;;;0.33;nan
46408;BME280;32110;45.724;21.276;2023-12-29T07:50:28;101180.06;;;0.49;nan
46408;BME280;32110;45.724;21.276;2023-12-29T07:52:53;101203.78;;;0.63;nan
46408;BME280;32110;45.724;21.276;2023-12-29T07:55:19;101155.53;;;0.33;nan
46408;BME280;32110;45.724;21.276;2023-12-29T07:57:44;101200.22;;;0.64;nan
46408;BME280;32110;45.724;21.276;2023-12-29T08:00:14;101208.53;;;0.68;nan
46408;BME280;32110;45.724;21.276;2023-12-29T08:02:40;101178.84;;;0.53;nan
46408;BME280;32110;45.724;21.276;2023-12-29T08:05:06;101183.75;;;0.56;nan
46408;BME280;32110;45.724;21.276;2023-12-29T08:07:34;101203.47;;;0.67;nan
46408;BME280;32110;45.724;21.276;2023-12-29T08:10:00;101208.00;;;0.74;nan
46408;BME280;32110;45.724;21.276;2023-12-29T08:12:25;101213.03;;;0.76;nan
46408;BME280;32110;45.724;21.276;2023-12-29T08:14:51;101204.31;;;0.77;nan
46408;BME280;32110;45.724;21.276;2023-12-29T08:17:16;101207.03;;;0.75;nan
46408;BME280;32110;45.724;21.276;2023-12-29T08:19:43;101211.88;;;0.88;nan
46408;BME280;32110;45.724;21.276;2023-12-29T08:22:08;101202.88;;;0.92;nan
46408;BME280;32110;45.724;21.276;2023-12-29T08:24:34;101196.44;;;0.96;nan
46408;BME280;32110;45.724;21.276;2023-12-29T08:26:59;101201.59;;;1.06;nan
46408;BME280;32110;45.724;21.276;2023-12-29T08:29:24;101207.13;;;1.21;nan
46408;BME280;32110;45.724;21.276;2023-12-29T08:41:32;101219.94;;;1.78;nan
46408;BME280;32110;45.724;21.276;2023-12-29T08:43:57;101310.38;;;2.46;nan
46408;BME280;32110;45.724;21.276;2023-12-29T08:46:23;101215.41;;;1.98;nan
46408;BME280;32110;45.724;21.276;2023-12-29T08:48:49;101214.59;;;2.15;nan
46408;BME280;32110;45.724;21.276;2023-12-29T08:51:15;101225.56;;;2.27;nan
46408;BME280;32110;45.724;21.276;2023-12-29T08:53:40;101211.75;;;2.26;nan
46408;BME280;32110;45.724;21.276;2023-12-29T08:56:06;101223.47;;;2.48;nan
46408;BME280;32110;45.724;21.276;2023-12-29T08:58:31;101210.00;;;2.53;nan
46408;BME280;32110;45.724;21.276;2023-12-29T09:00:57;101203.41;;;2.59;nan
46408;BME280;32110;45.724;21.276;2023-12-29T09:05:47;101212.66;;;2.87;nan
46408;BME280;32110;45.724;21.276;2023-12-29T09:08:13;101207.03;;;3.00;nan
46408;BME280;32110;45.724;21.276;2023-12-29T09:10:38;101227.81;;;3.26;nan
46408;BME280;32110;45.724;21.276;2023-12-29T09:13:04;101214.34;;;3.31;nan
46408;BME280;32110;45.724;21.276;2023-12-29T09:15:30;101232.66;;;3.55;nan
46408;BME280;32110;45.724;21.276;2023-12-29T09:17:55;101265.47;;;3.99;nan
46408;BME280;32110;45.724;21.276;2023-12-29T09:20:21;101194.28;;;3.74;nan
46408;BME280;32110;45.724;21.276;2023-12-29T09:22:46;101198.84;;;3.96;nan
46408;BME280;32110;45.724;21.276;2023-12-29T09:25:11;101199.84;;;4.12;nan
46408;BME280;32110;45.724;21.276;2023-12-29T09:27:37;101209.13;;;4.31;nan
46408;BME280;32110;45.724;21.276;2023-12-29T09:30:04;101193.16;;;4.34;nan
46408;BME280;32110;45.724;21.276;2023-12-29T09:32:30;101214.16;;;4.57;nan
46408;BME280;32110;45.724;21.276;2023-12-29T09:34:55;101188.41;;;4.54;nan
46408;BME280;32110;45.724;21.276;2023-12-29T09:37:22;101208.25;;;4.71;nan
46408;BME280;32110;45.724;21.276;2023-12-29T09:39:47;101214.75;;;4.92;nan
46408;BME280;32110;45.724;21.276;2023-12-29T09:42:19;101204.59;;;5.05;nan
46408;BME280;32110;45.724;21.276;2023-12-29T09:44:49;101187.66;;;5.01;nan
46408;BME280;32110;45.724;21.276;2023-12-29T09:47:18;101205.81;;;5.25;nan
46408;BME280;32110;45.724;21.276;2023-12-29T09:49:45;101178.75;;;5.18;nan
46408;BME280;32110;45.724;21.276;2023-12-29T09:52:12;101207.06;;;5.38;nan
46408;BME280;32110;45.724;21.276;2023-12-29T09:54:39;101193.38;;;5.36;nan
46408;BME280;32110;45.724;21.276;2023-12-29T09:57:05;101193.34;;;5.44;nan
46408;BME280;32110;45.724;21.276;2023-12-29T09:59:33;101167.53;;;5.41;nan
46408;BME280;32110;45.724;21.276;2023-12-29T10:02:01;101149.97;;;5.35;nan
46408;BME280;32110;45.724;21.276;2023-12-29T10:04:28;101168.91;;;5.60;nan
46408;BME280;32110;45.724;21.276;2023-12-29T10:06:55;101172.44;;;5.67;nan
46408;BME280;32110;45.724;21.276;2023-12-29T10:09:23;101159.09;;;5.62;nan
46408;BME280;32110;45.724;21.276;2023-12-29T10:11:50;101163.13;;;5.72;nan
46408;BME280;32110;45.724;21.276;2023-12-29T10:14:35;101156.03;;;5.81;nan
46408;BME280;32110;45.724;21.276;2023-12-29T10:17:09;101145.75;;;5.80;nan
46408;BME280;32110;45.724;21.276;2023-12-29T10:19:42;101128.56;;;5.85;nan
46408;BME280;32110;45.724;21.276;2023-12-29T10:22:25;101151.25;;;6.08;nan
46408;BME280;32110;45.724;21.276;2023-12-29T10:24:54;101131.34;;;6.07;nan
46408;BME280;32110;45.724;21.276;2023-12-29T10:27:19;101137.59;;;6.21;nan
46408;BME280;32110;45.724;21.276;2023-12-29T10:29:45;101135.53;;;6.31;nan
46408;BME280;32110;45.724;21.276;2023-12-29T10:32:10;101150.28;;;6.47;nan
46408;BME280;32110;45.724;21.276;2023-12-29T10:34:36;101128.81;;;6.51;nan
46408;BME280;32110;45.724;21.276;2023-12-29T10:37:02;101118.66;;;6.63;nan
46408;BME280;32110;45.724;21.276;2023-12-29T10:39:29;101128.63;;;6.82;nan
46408;BME280;32110;45.724;21.276;2023-12-29T10:42:06;101128.34;;;6.92;nan
46408;BME280;32110;45.724;21.276;2023-12-29T10:44:36;101125.06;;;7.05;nan
46408;BME280;32110;45.724;21.276;2023-12-29T10:47:09;101117.53;;;7.17;nan
46408;BME280;32110;45.724;21.276;2023-12-29T10:49:35;101114.78;;;7.25;nan
46408;BME280;32110;45.724;21.276;2023-12-29T10:52:11;101121.69;;;7.48;nan
46408;BME280;32110;45.724;21.276;2023-12-29T10:54:37;101096.03;;;7.43;nan
46408;BME280;32110;45.724;21.276;2023-12-29T10:57:03;101116.06;;;7.72;nan
46408;BME280;32110;45.724;21.276;2023-12-29T10:59:28;101115.94;;;7.80;nan
46408;BME280;32110;45.724;21.276;2023-12-29T11:01:55;101092.72;;;7.77;nan
46408;BME280;32110;45.724;21.276;2023-12-29T11:04:24;101097.00;;;7.85;nan
46408;BME280;32110;45.724;21.276;2023-12-29T11:06:49;101099.88;;;7.90;nan
46408;BME280;32110;45.724;21.276;2023-12-29T11:11:59;101082.75;;;7.94;nan
46408;BME280;32110;45.724;21.276;2023-12-29T11:14:25;101098.22;;;8.10;nan
46408;BME280;32110;45.724;21.276;2023-12-29T11:16:52;101103.91;;;8.14;nan
46408;BME280;32110;45.724;21.276;2023-12-29T11:19:18;101084.72;;;8.14;nan
46408;BME280;32110;45.724;21.276;2023-12-29T11:21:44;101085.78;;;8.26;nan
46408;BME280;32110;45.724;21.276;2023-12-29T11:24:10;101080.94;;;8.23;nan
46408;BME280;32110;45.724;21.276;2023-12-29T11:26:36;101040.28;;;8.05;nan
46408;BME280;32110;45.724;21.276;2023-12-29T11:29:03;101075.75;;;8.29;nan
46408;BME280;32110;45.724;21.276;2023-12-29T11:31:30;101088.69;;;8.38;nan
46408;BME280;32110;45.724;21.276;2023-12-29T11:34:05;101086.53;;;8.41;nan
46408;BME280;32110;45.724;21.276;2023-12-29T11:36:34;101072.16;;;8.37;nan
46408;BME280;32110;45.724;21.276;2023-12-29T11:39:27;101073.81;;;8.45;nan
46408;BME280;32110;45.724;21.276;2023-12-29T11:42:14;101073.81;;;8.45;nan
46408;BME280;32110;45.724;21.276;2023-12-29T11:44:43;101076.66;;;8.43;nan
46408;BME280;32110;45.724;21.276;2023-12-29T11:47:38;101074.25;;;8.48;nan
46408;BME280;32110;45.724;21.276;2023-12-29T11:50:04;101063.72;;;8.42;nan
46408;BME280;32110;45.724;21.276;2023-12-29T11:52:34;101078.31;;;8.51;nan
46408;BME280;32110;45.724;21.276;2023-12-29T11:55:09;101061.53;;;8.52;nan
46408;BME280;32110;45.724;21.276;2023-12-29T11:57:34;101047.00;;;8.43;nan
46408;BME280;32110;45.724;21.276;2023-12-29T12:00:02;101059.13;;;8.50;nan
46408;BME280;32110;45.724;21.276;2023-12-29T12:02:30;101050.25;;;8.51;nan
46408;BME280;32110;45.724;21.276;2023-12-29T12:04:56;101059.16;;;8.57;nan
46408;BME280;32110;45.724;21.276;2023-12-29T12:09:47;101060.78;;;8.58;nan
46408;BME280;32110;45.724;21.276;2023-12-29T12:12:40;101060.38;;;8.61;nan
46408;BME280;32110;45.724;21.276;2023-12-29T12:17:52;101054.13;;;8.62;nan
46408;BME280;32110;45.724;21.276;2023-12-29T12:20:17;101060.59;;;8.66;nan
46408;BME280;32110;45.724;21.276;2023-12-29T12:22:43;101002.50;;;8.35;nan
46408;BME280;32110;45.724;21.276;2023-12-29T12:25:11;101037.56;;;8.62;nan
46408;BME280;32110;45.724;21.276;2023-12-29T12:27:37;101052.75;;;8.73;nan
46408;BME280;32110;45.724;21.276;2023-12-29T12:30:04;101061.06;;;8.77;nan
46408;BME280;32110;45.724;21.276;2023-12-29T12:32:30;101050.13;;;8.73;nan
46408;BME280;32110;45.724;21.276;2023-12-29T12:34:56;101052.56;;;8.75;nan
46408;BME280;32110;45.724;21.276;2023-12-29T12:37:29;101046.50;;;8.81;nan
46408;BME280;32110;45.724;21.276;2023-12-29T12:39:55;101049.75;;;8.83;nan
46408;BME280;32110;45.724;21.276;2023-12-29T12:42:22;101036.81;;;8.75;nan
46408;BME280;32110;45.724;21.276;2023-12-29T12:45:10;101049.56;;;8.84;nan
46408;BME280;32110;45.724;21.276;2023-12-29T12:47:42;101057.84;;;8.88;nan
46408;BME280;32110;45.724;21.276;2023-12-29T12:50:11;101024.91;;;8.72;nan
46408;BME280;32110;45.724;21.276;2023-12-29T12:52:38;101045.31;;;8.83;nan
46408;BME280;32110;45.724;21.276;2023-12-29T12:55:05;101022.25;;;8.79;nan
46408;BME280;32110;45.724;21.276;2023-12-29T12:57:31;101045.75;;;8.87;nan
46408;BME280;32110;45.724;21.276;2023-12-29T12:59:59;101044.53;;;8.89;nan
46408;BME280;32110;45.724;21.276;2023-12-29T13:02:27;101031.38;;;8.83;nan
46408;BME280;32110;45.724;21.276;2023-12-29T13:04:54;101019.44;;;8.80;nan
46408;BME280;32110;45.724;21.276;2023-12-29T13:07:20;101028.97;;;8.88;nan
46408;BME280;32110;45.724;21.276;2023-12-29T13:09:46;101020.25;;;8.81;nan
46408;BME280;32110;45.724;21.276;2023-12-29T13:12:14;101023.09;;;8.86;nan
46408;BME280;32110;45.724;21.276;2023-12-29T13:14:41;101026.53;;;8.93;nan
46408;BME280;32110;45.724;21.276;2023-12-29T13:17:08;101016.41;;;8.83;nan
46408;BME280;32110;45.724;21.276;2023-12-29T13:19:36;101018.25;;;8.83;nan
46408;BME280;32110;45.724;21.276;2023-12-29T13:22:02;101017.03;;;8.85;nan
46408;BME280;32110;45.724;21.276;2023-12-29T13:24:30;101038.28;;;8.97;nan
46408;BME280;32110;45.724;21.276;2023-12-29T13:27:05;101027.56;;;8.92;nan
46408;BME280;32110;45.724;21.276;2023-12-29T13:29:31;101012.41;;;8.87;nan
46408;BME280;32110;45.724;21.276;2023-12-29T13:32:04;101021.91;;;8.95;nan
46408;BME280;32110;45.724;21.276;2023-12-29T13:34:38;101023.94;;;9.00;nan
46408;BME280;32110;45.724;21.276;2023-12-29T13:39:50;101013.41;;;8.93;nan
46408;BME280;32110;45.724;21.276;2023-12-29T13:42:17;101023.94;;;9.00;nan
46408;BME280;32110;45.724;21.276;2023-12-29T13:44:44;101019.31;;;9.02;nan
46408;BME280;32110;45.724;21.276;2023-12-29T13:47:11;101017.69;;;9.01;nan
46408;BME280;32110;45.724;21.276;2023-12-29T13:49:37;101023.78;;;9.08;nan
46408;BME280;32110;45.724;21.276;2023-12-29T13:52:11;101009.63;;;9.09;98.23
46408;BME280;32110;45.724;21.276;2023-12-29T13:54:41;101024.00;;;9.20;98.08
46408;BME280;32110;45.724;21.276;2023-12-29T13:57:07;101026.41;;;9.21;97.69
46408;BME280;32110;45.724;21.276;2023-12-29T13:59:33;101023.78;;;9.21;97.68
46408;BME280;32110;45.724;21.276;2023-12-29T14:02:04;101018.72;;;9.26;97.73
46408;BME280;32110;45.724;21.276;2023-12-29T14:04:40;101004.38;;;9.15;97.79
46408;BME280;32110;45.724;21.276;2023-12-29T14:07:07;101005.81;;;9.25;97.76
46408;BME280;32110;45.724;21.276;2023-12-29T14:09:34;100991.06;;;9.17;97.65
46408;BME280;32110;45.724;21.276;2023-12-29T14:12:00;101010.25;;;9.31;97.37
46408;BME280;32110;45.724;21.276;2023-12-29T14:14:25;101013.91;;;9.30;97.63
46408;BME280;32110;45.724;21.276;2023-12-29T14:16:52;101004.16;;;9.24;97.46
46408;BME280;32110;45.724;21.276;2023-12-29T14:19:18;101010.25;;;9.31;97.60
46408;BME280;32110;45.724;21.276;2023-12-29T14:21:45;100984.75;;;9.05;97.32
46408;BME280;32110;45.724;21.276;2023-12-29T14:24:13;101013.91;;;9.30;97.63
46408;BME280;32110;45.724;21.276;2023-12-29T14:29:18;101007.81;;;9.23;97.40
46408;BME280;32110;45.724;21.276;2023-12-29T14:31:45;101000.13;;;9.14;97.25
46408;BME280;32110;45.724;21.276;2023-12-29T14:34:12;100987.78;;;9.08;97.56
46408;BME280;32110;45.724;21.276;2023-12-29T14:36:41;100996.47;;;9.09;97.69
46408;BME280;32110;45.724;21.276;2023-12-29T14:39:07;100983.53;;;8.94;97.50
46408;BME280;32110;45.724;21.276;2023-12-29T14:41:33;100999.31;;;9.01;97.74
46408;BME280;32110;45.724;21.276;2023-12-29T14:43:58;100990.97;;;8.90;97.69
46408;BME280;32110;45.724;21.276;2023-12-29T14:46:25;100983.91;;;8.78;98.06
46408;BME280;32110;45.724;21.276;2023-12-29T14:48:51;100990.75;;;8.79;98.00
46408;BME280;32110;45.724;21.276;2023-12-29T14:51:17;100993.75;;;8.69;98.42
46408;BME280;32110;45.724;21.276;2023-12-29T14:53:44;101001.88;;;8.74;98.40
46408;BME280;32110;45.724;21.276;2023-12-29T14:56:10;100994.75;;;8.61;98.42
46408;BME280;32110;45.724;21.276;2023-12-29T14:58:36;100982.03;;;8.58;98.76
46408;BME280;32110;45.724;21.276;2023-12-29T15:01:02;100972.88;;;8.41;98.67
46408;BME280;32110;45.724;21.276;2023-12-29T15:03:28;100991.28;;;8.54;98.65
46408;BME280;32110;45.724;21.276;2023-12-29T15:05:54;100993.69;;;8.49;98.71
46408;BME280;32110;45.724;21.276;2023-12-29T15:08:19;100999.75;;;8.43;99.14
46408;BME280;32110;45.724;21.276;2023-12-29T15:10:45;100987.38;;;8.37;99.23
46408;BME280;32110;45.724;21.276;2023-12-29T15:13:10;100995.63;;;8.34;99.48
46408;BME280;32110;45.724;21.276;2023-12-29T15:15:36;100984.88;;;8.22;99.66
46408;BME280;32110;45.724;21.276;2023-12-29T15:18:03;100999.19;;;8.19;99.20
46408;BME280;32110;45.724;21.276;2023-12-29T15:20:28;100991.06;;;8.07;99.35
46408;BME280;32110;45.724;21.276;2023-12-29T15:22:54;100979.84;;;7.85;99.61
46408;BME280;32110;45.724;21.276;2023-12-29T15:25:24;100990.06;;;7.80;99.83
46408;BME280;32110;45.724;21.276;2023-12-29T15:27:51;100996.38;;;7.86;100.00
46408;BME280;32110;45.724;21.276;2023-12-29T15:30:17;100990.53;;;7.84;100.00
46408;BME280;32110;45.724;21.276;2023-12-29T15:32:43;100991.94;;;7.86;100.00
46408;BME280;32110;45.724;21.276;2023-12-29T15:35:09;100994.38;;;7.88;100.00
46408;BME280;32110;45.724;21.276;2023-12-29T15:37:34;101003.44;;;7.85;100.00
46408;BME280;32110;45.724;21.276;2023-12-29T15:40:00;100996.16;;;7.81;100.00
46408;BME280;32110;45.724;21.276;2023-12-29T15:42:26;100997.91;;;7.74;100.00
46408;BME280;32110;45.724;21.276;2023-12-29T15:44:52;100999.47;;;7.68;99.92
46408;BME280;32110;45.724;21.276;2023-12-29T15:47:17;100983.44;;;7.50;99.26
46408;BME280;32110;45.724;21.276;2023-12-29T15:49:43;100988.41;;;7.44;98.40
46408;BME280;32110;45.724;21.276;2023-12-29T15:52:08;100987.88;;;7.28;98.69
46408;BME280;32110;45.724;21.276;2023-12-29T15:54:34;101006.50;;;7.18;100.00
46408;BME280;32110;45.724;21.276;2023-12-29T15:56:59;100986.44;;;7.03;100.00
46408;BME280;32110;45.724;21.276;2023-12-29T15:59:25;100983.06;;;6.88;100.00
46408;BME280;32110;45.724;21.276;2023-12-29T16:01:51;100996.03;;;6.96;100.00
46408;BME280;32110;45.724;21.276;2023-12-29T16:04:16;100985.94;;;6.93;100.00
46408;BME280;32110;45.724;21.276;2023-12-29T16:06:42;101000.91;;;6.99;100.00
46408;BME280;32110;45.724;21.276;2023-12-29T16:09:07;100987.59;;;6.94;100.00
46408;BME280;32110;45.724;21.276;2023-12-29T16:11:32;100993.63;;;6.95;100.00
46408;BME280;32110;45.724;21.276;2023-12-29T16:13:59;100953.06;;;6.69;100.00
46408;BME280;32110;45.724;21.276;2023-12-29T16:16:25;100984.44;;;6.84;100.00
46408;BME280;32110;45.724;21.276;2023-12-29T16:18:56;100976.09;;;6.74;100.00